createdAt,value
2022-12-11T00:01:25.325Z,17.00
2022-12-11T00:03:51.825Z,17.77
2022-12-11T00:06:21.756Z,19.02
2022-12-11T00:08:50.803Z,18.90
2022-12-11T00:11:17.255Z,19.40
2022-12-11T00:13:43.723Z,18.48
2022-12-11T00:16:10.643Z,18.63
2022-12-11T00:18:37.621Z,17.05
2022-12-11T00:21:06.198Z,17.10
2022-12-11T00:23:34.744Z,17.17
2022-12-11T00:26:01.175Z,17.23
2022-12-11T00:28:27.572Z,20.13
2022-12-11T00:30:54.038Z,16.75
2022-12-11T00:33:20.458Z,17.90
2022-12-11T00:35:47.892Z,17.95
2022-12-11T00:38:19.767Z,18.95
2022-12-11T00:40:46.591Z,16.95
2022-12-11T00:43:13.566Z,19.50
2022-12-11T00:45:45.935Z,18.40
2022-12-11T00:48:12.981Z,18.30
2022-12-11T00:50:40.600Z,17.67
2022-12-11T00:55:38.045Z,17.60
2022-12-11T00:58:04.953Z,18.35
2022-12-11T01:00:31.403Z,20.15
2022-12-11T01:02:57.968Z,21.15
2022-12-11T01:05:24.420Z,19.48
2022-12-11T01:07:51.016Z,18.20
2022-12-11T01:10:26.657Z,18.85
2022-12-11T01:13:06.086Z,19.20
2022-12-11T01:15:41.335Z,19.75
2022-12-11T01:18:09.107Z,18.80
2022-12-11T01:20:38.852Z,20.40
2022-12-11T01:23:05.251Z,17.98
2022-12-11T01:25:33.116Z,19.25
2022-12-11T01:27:59.645Z,18.27
2022-12-11T01:30:26.799Z,18.38
2022-12-11T01:32:53.284Z,20.30
2022-12-11T01:35:20.157Z,18.58
2022-12-11T01:37:47.152Z,20.13
2022-12-11T01:40:15.610Z,18.90
2022-12-11T01:42:42.391Z,19.98
2022-12-11T01:45:32.369Z,20.50
2022-12-11T01:48:16.065Z,19.10
2022-12-11T01:50:48.939Z,19.35
2022-12-11T01:53:21.119Z,20.23
2022-12-11T01:55:49.536Z,20.02
2022-12-11T01:58:18.295Z,20.30
2022-12-11T02:00:44.740Z,18.08
2022-12-11T02:03:11.364Z,18.60
2022-12-11T02:05:38.331Z,18.08
2022-12-11T02:08:06.804Z,17.67
2022-12-11T02:11:01.408Z,18.40
2022-12-11T02:13:39.362Z,19.77
2022-12-11T02:16:19.342Z,19.67
2022-12-11T02:18:55.472Z,19.30
2022-12-11T02:21:37.934Z,19.92
2022-12-11T02:24:22.551Z,21.00
2022-12-11T02:27:01.862Z,18.42
2022-12-11T02:29:37.728Z,19.38
2022-12-11T02:32:06.745Z,19.63
2022-12-11T02:34:41.052Z,21.05
2022-12-11T02:37:15.095Z,21.42
2022-12-11T02:39:44.141Z,19.00
2022-12-11T02:42:13.832Z,20.30
2022-12-11T02:44:41.268Z,21.13
2022-12-11T02:47:13.921Z,19.50
2022-12-11T02:49:43.936Z,20.95
2022-12-11T02:52:14.455Z,22.00
2022-12-11T02:54:43.895Z,20.73
2022-12-11T02:57:16.640Z,22.90
2022-12-11T02:59:45.653Z,21.13
2022-12-11T03:02:16.624Z,20.92
2022-12-11T03:04:44.454Z,21.25
2022-12-11T03:07:16.059Z,22.30
2022-12-11T03:09:44.913Z,20.27
2022-12-11T03:12:17.228Z,22.98
2022-12-11T03:14:44.144Z,20.42
2022-12-11T03:17:14.294Z,21.25
2022-12-11T03:20:06.447Z,23.38
2022-12-11T03:22:39.130Z,22.83
2022-12-11T03:25:41.370Z,23.40
2022-12-11T03:28:16.013Z,20.30
2022-12-11T03:30:45.152Z,19.60
2022-12-11T03:33:30.857Z,18.85
2022-12-11T03:36:03.949Z,20.63
2022-12-11T03:39:07.165Z,21.60
2022-12-11T03:41:35.796Z,19.40
2022-12-11T03:44:02.268Z,21.38
2022-12-11T03:46:33.941Z,19.60
2022-12-11T03:49:07.910Z,20.55
2022-12-11T03:51:35.864Z,19.50
2022-12-11T03:54:02.601Z,20.77
2022-12-11T03:56:31.860Z,20.10
2022-12-11T03:58:58.457Z,18.35
2022-12-11T04:01:24.961Z,20.77
2022-12-11T04:03:51.681Z,19.88
2022-12-11T04:06:18.164Z,20.13
2022-12-11T04:08:44.671Z,19.60
2022-12-11T04:11:29.751Z,18.48
2022-12-11T04:14:14.664Z,17.45
2022-12-11T04:16:41.168Z,18.60
2022-12-11T04:19:28.395Z,17.17
2022-12-11T04:22:13.258Z,18.48
2022-12-11T04:24:39.658Z,18.95
2022-12-11T04:27:06.372Z,18.35
2022-12-11T04:29:32.779Z,18.87
2022-12-11T04:31:59.230Z,18.85
2022-12-11T04:34:25.662Z,18.23
2022-12-11T04:36:52.102Z,18.13
2022-12-11T04:39:18.552Z,18.27
2022-12-11T04:41:45.012Z,17.90
2022-12-11T04:44:11.470Z,19.23
2022-12-11T04:46:38.114Z,19.13
2022-12-11T04:49:04.565Z,17.60
2022-12-11T04:51:30.969Z,17.08
2022-12-11T04:53:59.079Z,17.67
2022-12-11T04:56:25.561Z,17.33
2022-12-11T04:58:51.978Z,17.25
2022-12-11T05:01:22.662Z,18.27
2022-12-11T05:03:49.328Z,16.65
2022-12-11T05:06:16.228Z,17.75
2022-12-11T05:08:43.401Z,18.70
2022-12-11T05:11:12.320Z,18.65
2022-12-11T05:13:38.949Z,15.50
2022-12-11T05:16:06.791Z,15.43
2022-12-11T05:18:33.590Z,17.80
2022-12-11T05:21:05.843Z,16.93
2022-12-11T05:23:33.284Z,17.50
2022-12-11T05:26:03.151Z,18.38
2022-12-11T05:28:31.465Z,17.23
2022-12-11T05:31:00.341Z,18.73
2022-12-11T05:33:27.099Z,17.33
2022-12-11T05:35:53.875Z,16.83
2022-12-11T05:38:20.831Z,18.43
2022-12-11T05:41:05.935Z,18.55
2022-12-11T05:43:35.863Z,16.65
2022-12-11T05:46:16.958Z,17.83
2022-12-11T05:48:46.020Z,17.88
2022-12-11T05:51:13.635Z,18.27
2022-12-11T05:56:12.995Z,16.73
2022-12-11T05:58:40.101Z,18.33
2022-12-11T06:01:34.832Z,17.52
2022-12-11T06:04:02.142Z,20.48
2022-12-11T06:06:28.794Z,19.15
2022-12-11T06:08:57.191Z,17.90
2022-12-11T06:11:25.226Z,17.50
2022-12-11T06:13:53.211Z,19.63
2022-12-11T06:16:19.970Z,17.90
2022-12-11T06:18:46.711Z,17.88
2022-12-11T06:21:28.685Z,18.08
2022-12-11T06:23:57.137Z,18.38
2022-12-11T06:26:24.235Z,17.48
2022-12-11T06:28:51.292Z,17.40
2022-12-11T06:31:18.455Z,17.75
2022-12-11T06:33:45.405Z,18.40
2022-12-11T06:36:15.318Z,19.13
2022-12-11T06:38:42.388Z,16.73
2022-12-11T06:41:09.513Z,17.45
2022-12-11T06:43:38.426Z,17.70
2022-12-11T06:46:06.094Z,18.38
2022-12-11T06:51:00.172Z,16.00
2022-12-11T06:53:26.540Z,18.50
2022-12-11T06:55:52.953Z,17.38
2022-12-11T06:58:19.436Z,16.73
2022-12-11T07:00:46.073Z,17.77
2022-12-11T07:03:13.744Z,18.35
2022-12-11T07:08:07.477Z,18.50
2022-12-11T07:10:34.067Z,16.58
2022-12-11T07:13:00.481Z,15.68
2022-12-11T07:15:26.895Z,17.55
2022-12-11T07:17:53.352Z,17.52
2022-12-11T07:20:19.777Z,15.30
2022-12-11T07:22:46.773Z,16.95
2022-12-11T07:25:14.135Z,17.77
2022-12-11T07:27:41.640Z,17.55
2022-12-11T07:30:08.996Z,18.30
2022-12-11T07:32:35.441Z,17.33
2022-12-11T07:35:01.951Z,16.95
2022-12-11T07:37:28.428Z,17.42
2022-12-11T07:39:54.942Z,16.70
2022-12-11T07:42:21.491Z,18.45
2022-12-11T07:44:48.150Z,18.02
2022-12-11T07:47:14.712Z,15.65
2022-12-11T07:49:41.127Z,18.15
2022-12-11T07:52:07.597Z,18.67
2022-12-11T07:54:34.004Z,19.02
2022-12-11T07:57:00.369Z,17.75
2022-12-11T07:59:26.758Z,18.35
2022-12-11T08:01:53.215Z,18.33
2022-12-11T08:04:19.637Z,18.48
2022-12-11T08:06:46.130Z,18.85
2022-12-11T08:09:20.706Z,17.88
2022-12-11T08:11:51.734Z,17.98
2022-12-11T08:14:19.407Z,24.42
2022-12-11T08:19:12.930Z,18.38
2022-12-11T08:21:40.369Z,18.88
2022-12-11T08:24:07.761Z,20.08
2022-12-11T08:26:34.104Z,20.02
2022-12-11T08:29:01.048Z,17.55
2022-12-11T08:31:28.255Z,17.73
2022-12-11T08:33:56.495Z,18.42
2022-12-11T08:36:23.987Z,16.88
2022-12-11T08:38:51.700Z,19.55
2022-12-11T08:43:55.232Z,16.75
2022-12-11T08:46:24.391Z,19.98
2022-12-11T08:48:51.093Z,19.17
2022-12-11T08:51:22.745Z,20.92
2022-12-11T08:53:50.375Z,19.52
2022-12-11T08:58:46.088Z,19.43
2022-12-11T09:01:18.852Z,19.73
2022-12-11T09:03:45.464Z,19.92
2022-12-11T09:06:14.928Z,18.98
2022-12-11T09:08:46.013Z,19.95
2022-12-11T09:11:23.971Z,21.52
2022-12-11T09:13:50.553Z,19.48
2022-12-11T09:16:19.246Z,21.33
2022-12-11T09:18:48.290Z,21.33
2022-12-11T09:21:17.179Z,20.50
2022-12-11T09:23:44.611Z,21.55
2022-12-11T09:26:14.329Z,23.58
2022-12-11T09:28:46.188Z,20.75
2022-12-11T09:31:13.570Z,20.98
2022-12-11T09:33:40.025Z,20.88
2022-12-11T09:36:07.031Z,21.88
2022-12-11T09:38:33.801Z,20.77
2022-12-11T09:41:01.039Z,20.43
2022-12-11T09:43:30.521Z,20.42
2022-12-11T09:45:58.463Z,20.65
2022-12-11T09:48:26.388Z,20.77
2022-12-11T09:50:55.137Z,22.33
2022-12-11T09:53:34.808Z,25.05
2022-12-11T09:56:17.951Z,23.38
2022-12-11T09:59:14.957Z,23.00
2022-12-11T10:01:54.502Z,21.23
2022-12-11T10:04:33.222Z,20.38
2022-12-11T10:07:07.226Z,20.90
2022-12-11T10:09:51.979Z,21.85
2022-12-11T10:12:28.804Z,19.90
2022-12-11T10:15:21.396Z,20.70
2022-12-11T10:17:48.241Z,21.27
2022-12-11T10:20:33.616Z,24.27
2022-12-11T10:23:00.075Z,20.42
2022-12-11T10:25:32.552Z,19.42
2022-12-11T10:28:00.542Z,19.73
2022-12-11T10:30:36.963Z,21.05
2022-12-11T10:33:18.426Z,18.38
2022-12-11T10:35:56.904Z,18.73
2022-12-11T10:38:38.267Z,18.83
2022-12-11T10:41:11.649Z,18.77
2022-12-11T10:43:44.046Z,16.38
2022-12-11T10:46:29.981Z,16.92
2022-12-11T10:48:59.799Z,18.42
2022-12-11T10:51:35.054Z,17.25
2022-12-11T10:54:29.519Z,17.83
2022-12-11T10:56:56.692Z,18.80
2022-12-11T10:59:29.789Z,17.73
2022-12-11T11:01:57.762Z,17.73
2022-12-11T11:04:33.303Z,16.00
2022-12-11T11:07:04.573Z,15.52
2022-12-11T11:09:36.021Z,16.75
2022-12-11T11:12:07.952Z,16.58
2022-12-11T11:14:34.758Z,15.68
2022-12-11T11:17:01.376Z,16.50
2022-12-11T11:19:33.992Z,17.77
2022-12-11T11:22:27.685Z,18.33
2022-12-11T11:24:57.003Z,16.73
2022-12-11T11:27:31.325Z,17.33
2022-12-11T11:30:02.903Z,15.98
2022-12-11T11:32:37.005Z,15.32
2022-12-11T11:35:25.566Z,14.18
2022-12-11T11:38:22.179Z,13.77
2022-12-11T11:41:07.614Z,13.70
2022-12-11T11:43:48.873Z,15.87
2022-12-11T11:46:23.393Z,14.98
2022-12-11T11:49:37.658Z,15.82
2022-12-11T11:52:15.906Z,15.60
2022-12-11T11:57:45.348Z,15.80
2022-12-11T12:00:20.775Z,14.13
2022-12-11T12:02:51.406Z,15.88
2022-12-11T12:05:26.481Z,17.40
2022-12-11T12:08:22.828Z,15.40
2022-12-11T12:11:04.580Z,15.07
2022-12-11T12:13:55.779Z,13.65
2022-12-11T12:16:53.808Z,13.57
2022-12-11T12:19:46.140Z,13.15
2022-12-11T12:22:38.416Z,12.77
2022-12-11T12:25:34.152Z,13.60
2022-12-11T12:28:35.961Z,14.80
2022-12-11T12:31:08.304Z,15.60
2022-12-11T12:33:58.216Z,14.73
2022-12-11T12:36:31.703Z,13.98
2022-12-11T12:39:02.360Z,15.65
2022-12-11T12:41:41.733Z,14.68
2022-12-11T12:44:16.047Z,15.00
2022-12-11T12:46:54.512Z,14.05
2022-12-11T12:49:30.291Z,14.45
2022-12-11T12:51:57.844Z,14.85
2022-12-11T12:54:28.029Z,15.35
2022-12-11T12:56:55.702Z,14.77
2022-12-11T13:01:55.211Z,16.58
2022-12-11T13:04:55.010Z,14.13
2022-12-11T13:07:28.373Z,14.25
2022-12-11T13:10:22.695Z,14.50
2022-12-11T13:12:49.392Z,15.20
2022-12-11T13:15:31.635Z,15.57
2022-12-11T13:17:59.534Z,15.55
2022-12-11T13:20:28.681Z,16.15
2022-12-11T13:23:07.061Z,14.98
2022-12-11T13:25:51.671Z,15.13
2022-12-11T13:28:23.069Z,16.00
2022-12-11T13:31:02.139Z,15.35
2022-12-11T13:33:30.511Z,14.38
2022-12-11T13:36:24.996Z,14.00
2022-12-11T13:39:19.389Z,14.70
2022-12-11T13:41:51.604Z,15.70
2022-12-11T13:44:41.310Z,14.00
2022-12-11T13:47:13.949Z,15.48
2022-12-11T13:49:43.222Z,15.68
2022-12-11T13:52:21.860Z,13.50
2022-12-11T13:54:50.757Z,15.88
2022-12-11T13:57:28.720Z,15.57
2022-12-11T13:59:56.965Z,14.73
2022-12-11T14:02:44.563Z,14.70
2022-12-11T14:05:12.947Z,14.30
2022-12-11T14:08:02.345Z,12.50
2022-12-11T14:10:32.416Z,12.38
2022-12-11T14:13:01.700Z,12.85
2022-12-11T14:15:31.257Z,12.27
2022-12-11T14:17:59.079Z,13.48
2022-12-11T14:20:29.884Z,12.88
2022-12-11T14:23:15.503Z,14.10
2022-12-11T14:25:42.160Z,14.27
2022-12-11T14:28:18.123Z,13.82
2022-12-11T14:30:51.001Z,13.48
2022-12-11T14:33:21.905Z,12.85
2022-12-11T14:35:50.619Z,13.45
2022-12-11T14:38:22.949Z,12.07
2022-12-11T14:40:56.488Z,14.20
2022-12-11T14:43:38.831Z,13.70
2022-12-11T14:46:16.560Z,13.43
2022-12-11T14:49:01.328Z,12.70
2022-12-11T14:51:31.288Z,15.32
2022-12-11T14:53:58.139Z,15.35
2022-12-11T14:56:28.056Z,12.93
2022-12-11T14:59:05.046Z,14.90
2022-12-11T15:01:34.454Z,15.90
2022-12-11T15:04:05.684Z,16.60
2022-12-11T15:06:35.629Z,14.80
2022-12-11T15:09:18.460Z,15.00
2022-12-11T15:11:46.157Z,13.23
2022-12-11T15:16:42.599Z,13.88
2022-12-11T15:19:19.072Z,14.00
2022-12-11T15:21:46.024Z,15.00
2022-12-11T15:24:27.984Z,13.93
2022-12-11T15:26:58.472Z,13.57
2022-12-11T15:29:39.713Z,15.32
2022-12-11T15:32:09.157Z,13.98
2022-12-11T15:34:46.686Z,14.25
2022-12-11T15:37:22.140Z,13.48
2022-12-11T15:39:48.645Z,12.88
2022-12-11T15:42:21.644Z,13.85
2022-12-11T15:44:48.191Z,15.35
2022-12-11T15:47:16.159Z,15.00
2022-12-11T15:49:42.564Z,15.57
2022-12-11T15:52:08.936Z,17.17
2022-12-11T15:54:35.353Z,17.27
2022-12-11T15:57:05.514Z,18.42
2022-12-11T15:59:33.096Z,17.92
2022-12-11T16:04:25.812Z,14.10
2022-12-11T16:06:52.337Z,14.55
2022-12-11T16:09:18.695Z,15.23
2022-12-11T16:11:45.115Z,15.13
2022-12-11T16:14:11.562Z,16.00
2022-12-11T16:16:37.976Z,15.05
2022-12-11T16:19:04.434Z,14.80
2022-12-11T16:21:30.837Z,13.35
2022-12-11T16:23:57.337Z,13.30
2022-12-11T16:26:23.767Z,11.60
2022-12-11T16:28:50.389Z,14.48
2022-12-11T16:31:17.127Z,12.82
2022-12-11T16:33:43.919Z,14.23
2022-12-11T16:36:15.608Z,12.77
2022-12-11T16:38:49.905Z,13.45
2022-12-11T16:41:19.694Z,12.60
2022-12-11T16:43:46.142Z,11.75
2022-12-11T16:46:12.644Z,12.82
2022-12-11T16:48:39.126Z,11.90
2022-12-11T16:51:05.944Z,12.40
2022-12-11T16:53:32.477Z,13.32
2022-12-11T16:55:59.012Z,12.25
2022-12-11T16:58:25.422Z,12.43
2022-12-11T17:00:51.891Z,14.30
2022-12-11T17:03:19.467Z,16.38
2022-12-11T17:05:45.891Z,16.05
2022-12-11T17:08:12.512Z,14.52
2022-12-11T17:10:41.354Z,14.00
2022-12-11T17:13:07.871Z,13.10
2022-12-11T17:15:34.410Z,15.32
2022-12-11T17:18:00.931Z,13.13
2022-12-11T17:20:27.437Z,13.38
2022-12-11T17:22:53.879Z,18.23
2022-12-11T17:25:22.371Z,31.63
2022-12-11T17:27:49.451Z,24.30
2022-12-11T17:30:16.539Z,16.77
2022-12-11T17:32:43.014Z,12.90
2022-12-11T17:35:09.968Z,14.50
2022-12-11T17:37:36.570Z,19.02
2022-12-11T17:40:03.375Z,16.52
2022-12-11T17:42:29.824Z,13.88
2022-12-11T17:44:56.292Z,13.43
2022-12-11T17:47:23.826Z,13.50
2022-12-11T17:49:50.479Z,13.02
2022-12-11T17:52:16.872Z,12.80
2022-12-11T17:54:43.293Z,14.18
2022-12-11T17:57:09.818Z,13.68
2022-12-11T17:59:36.308Z,15.85
2022-12-11T18:02:02.941Z,18.80
2022-12-11T18:04:29.421Z,13.33
2022-12-11T18:06:55.963Z,12.48
2022-12-11T18:09:22.472Z,15.38
2022-12-11T18:11:48.986Z,19.08
2022-12-11T18:14:17.483Z,15.63
2022-12-11T18:16:44.652Z,15.40
2022-12-11T18:19:11.241Z,13.40
2022-12-11T18:21:42.651Z,12.68
2022-12-11T18:24:09.845Z,12.23
2022-12-11T18:26:37.479Z,12.10
2022-12-11T18:31:30.462Z,11.57
2022-12-11T18:33:57.139Z,12.23
2022-12-11T18:36:23.567Z,14.93
2022-12-11T18:38:50.237Z,15.07
2022-12-11T18:41:18.169Z,15.60
2022-12-11T18:43:44.855Z,11.45
2022-12-11T18:46:14.383Z,10.13
2022-12-11T18:48:42.492Z,10.48
2022-12-11T18:51:11.489Z,11.63
2022-12-11T18:53:41.816Z,10.63
2022-12-11T18:56:12.779Z,10.85
2022-12-11T18:58:39.548Z,9.93
2022-12-11T19:01:24.743Z,9.07
2022-12-11T19:03:58.825Z,10.30
2022-12-11T19:06:30.296Z,9.23
2022-12-11T19:11:26.682Z,13.32
2022-12-11T19:13:54.847Z,11.63
2022-12-11T19:16:24.994Z,10.98
2022-12-11T19:18:51.722Z,12.02
2022-12-11T19:21:18.989Z,11.10
2022-12-11T19:23:45.954Z,11.77
2022-12-11T19:26:21.352Z,12.30
2022-12-11T19:28:49.326Z,11.82
2022-12-11T19:31:19.149Z,11.25
2022-12-11T19:33:48.753Z,12.85
2022-12-11T19:36:23.975Z,14.30
2022-12-11T19:38:51.463Z,17.70
2022-12-11T19:41:28.858Z,24.50
2022-12-11T19:43:56.921Z,17.90
2022-12-11T19:46:24.916Z,15.20
2022-12-11T19:48:54.133Z,14.85
2022-12-11T19:51:23.638Z,14.23
2022-12-11T19:53:50.493Z,15.45
2022-12-11T19:56:18.912Z,15.90
2022-12-11T19:58:45.569Z,11.68
2022-12-11T20:01:24.782Z,12.43
2022-12-11T20:03:52.621Z,16.05
2022-12-11T20:06:19.753Z,12.65
2022-12-11T20:08:46.724Z,13.85
2022-12-11T20:11:18.319Z,13.15
2022-12-11T20:13:46.340Z,13.30
2022-12-11T20:16:13.500Z,13.10
2022-12-11T20:18:40.060Z,12.90
2022-12-11T20:21:09.124Z,13.35
2022-12-11T20:23:36.380Z,15.00
2022-12-11T20:26:11.856Z,13.38
2022-12-11T20:28:38.462Z,17.55
2022-12-11T20:31:16.445Z,19.00
2022-12-11T20:33:46.915Z,15.38
2022-12-11T20:36:15.364Z,17.63
2022-12-11T20:38:42.073Z,12.90
2022-12-11T20:41:11.322Z,14.60
2022-12-11T20:43:38.855Z,12.50
2022-12-11T20:46:10.479Z,11.63
2022-12-11T20:48:38.354Z,12.60
2022-12-11T20:51:06.490Z,13.23
2022-12-11T20:53:34.909Z,12.35
2022-12-11T20:56:02.030Z,13.35
2022-12-11T20:58:28.463Z,16.30
2022-12-11T21:00:54.971Z,15.57
2022-12-11T21:03:21.438Z,12.82
2022-12-11T21:05:47.911Z,13.75
2022-12-11T21:08:14.394Z,12.57
2022-12-11T21:10:42.155Z,13.23
2022-12-11T21:15:36.424Z,11.80
2022-12-11T21:18:03.022Z,11.35
2022-12-11T21:20:29.486Z,11.35
2022-12-11T21:22:57.555Z,12.77
2022-12-11T21:25:24.944Z,12.95
2022-12-11T21:27:51.827Z,12.27
2022-12-11T21:30:18.875Z,12.10
2022-12-11T21:32:45.528Z,13.50
2022-12-11T21:35:12.724Z,16.52
2022-12-11T21:37:41.679Z,14.93
2022-12-11T21:40:09.657Z,15.93
2022-12-11T21:42:36.114Z,14.63
2022-12-11T21:47:49.681Z,13.05
2022-12-11T21:50:16.636Z,12.98
2022-12-11T21:52:43.301Z,12.75
2022-12-11T21:55:11.859Z,13.23
2022-12-11T21:57:38.525Z,13.05
2022-12-11T22:00:06.456Z,12.88
2022-12-11T22:02:37.450Z,12.88
2022-12-11T22:05:07.488Z,12.98
2022-12-11T22:07:33.917Z,13.43
2022-12-11T22:10:00.338Z,14.25
2022-12-11T22:12:28.288Z,14.32
2022-12-11T22:14:54.832Z,14.45
2022-12-11T22:17:21.545Z,13.00
2022-12-11T22:19:48.075Z,12.83
2022-12-11T22:22:14.599Z,11.75
2022-12-11T22:24:41.256Z,14.25
2022-12-11T22:27:07.758Z,14.63
2022-12-11T22:29:34.837Z,14.15
2022-12-11T22:32:01.936Z,22.55
2022-12-11T22:34:28.412Z,28.95
2022-12-11T22:36:55.056Z,20.98
2022-12-11T22:39:21.692Z,20.13
2022-12-11T22:41:48.226Z,13.67
2022-12-11T22:44:17.135Z,13.88
2022-12-11T22:46:49.708Z,29.45
2022-12-11T22:49:17.752Z,14.48
2022-12-11T22:51:44.223Z,12.80
2022-12-11T22:54:10.721Z,14.00
2022-12-11T22:56:37.166Z,18.25
2022-12-11T22:59:03.663Z,13.93
2022-12-11T23:01:30.205Z,13.20
2022-12-11T23:03:56.649Z,13.13
2022-12-11T23:06:24.799Z,12.70
2022-12-11T23:08:55.058Z,13.18
2022-12-11T23:11:27.541Z,13.38
2022-12-11T23:13:55.199Z,15.05
2022-12-11T23:18:48.681Z,13.57
2022-12-11T23:21:15.239Z,13.32
2022-12-11T23:23:41.711Z,13.25
2022-12-11T23:26:10.961Z,13.32
2022-12-11T23:28:37.528Z,12.55
2022-12-11T23:31:04.515Z,13.25
2022-12-11T23:33:31.050Z,15.00
2022-12-11T23:35:58.564Z,13.13
2022-12-11T23:38:25.283Z,14.90
2022-12-11T23:40:52.419Z,13.60
2022-12-11T23:43:19.114Z,13.85
2022-12-11T23:45:46.522Z,13.40
2022-12-11T23:48:13.625Z,13.25
2022-12-11T23:50:42.388Z,14.63
2022-12-11T23:53:09.711Z,14.55
2022-12-11T23:55:39.288Z,14.05
2022-12-11T23:58:05.961Z,14.23
